createdAt,value
2022-12-09T00:04:21.462Z,99074.06
2022-12-09T00:09:23.417Z,99071.50
2022-12-09T00:14:25.742Z,99067.19
2022-12-09T00:19:27.649Z,99067.72
2022-12-09T00:24:29.533Z,99077.31
2022-12-09T00:29:31.548Z,99071.38
2022-12-09T00:34:33.413Z,99073.88
2022-12-09T00:39:35.123Z,99066.22
2022-12-09T00:44:36.906Z,99061.16
2022-12-09T00:49:38.995Z,99068.03
2022-12-09T00:54:40.842Z,99073.31
2022-12-09T01:00:36.494Z,99065.53
2022-12-09T01:05:38.336Z,99075.63
2022-12-09T01:10:42.093Z,99077.31
2022-12-09T01:15:44.555Z,99081.69
2022-12-09T01:20:56.485Z,99080.03
2022-12-09T01:25:58.510Z,99082.69
2022-12-09T01:31:17.834Z,99090.31
2022-12-09T01:36:22.860Z,99087.81
2022-12-09T01:41:25.053Z,99087.09
2022-12-09T01:46:26.828Z,99080.25
2022-12-09T01:51:30.476Z,99088.88
2022-12-09T01:56:35.021Z,99088.94
2022-12-09T02:01:38.825Z,99081.88
2022-12-09T02:06:41.019Z,99078.59
2022-12-09T02:12:08.374Z,99082.03
2022-12-09T02:17:28.942Z,99079.47
2022-12-09T02:22:40.837Z,99069.09
2022-12-09T02:27:59.164Z,99063.94
2022-12-09T02:33:19.454Z,99063.03
2022-12-09T02:38:31.934Z,99052.75
2022-12-09T02:43:41.137Z,99061.41
2022-12-09T02:48:55.937Z,99059.75
2022-12-09T02:54:03.992Z,99061.50
2022-12-09T02:59:09.608Z,99047.59
2022-12-09T03:04:21.346Z,99050.91
2022-12-09T03:09:33.989Z,99049.34
2022-12-09T03:14:41.883Z,99042.53
2022-12-09T03:20:05.045Z,99048.09
2022-12-09T03:25:26.392Z,99043.13
2022-12-09T03:30:36.770Z,99048.50
2022-12-09T03:35:46.458Z,99045.97
2022-12-09T03:40:53.949Z,99050.22
2022-12-09T03:45:57.523Z,99045.06
2022-12-09T03:51:15.913Z,99045.94
2022-12-09T03:56:45.532Z,99041.63
2022-12-09T04:01:47.808Z,99036.47
2022-12-09T04:06:51.758Z,99038.03
2022-12-09T04:11:53.411Z,99029.28
2022-12-09T04:16:55.343Z,99032.00
2022-12-09T04:21:57.044Z,99016.34
2022-12-09T04:26:58.939Z,99030.19
2022-12-09T04:32:00.721Z,99023.31
2022-12-09T04:37:02.541Z,99010.53
2022-12-09T04:42:04.605Z,99013.00
2022-12-09T04:47:06.516Z,99013.94
2022-12-09T04:52:08.138Z,99022.66
2022-12-09T04:57:12.348Z,99024.41
2022-12-09T05:02:15.123Z,99032.91
2022-12-09T05:07:17.270Z,99032.19
2022-12-09T05:12:19.439Z,99037.38
2022-12-09T05:17:21.846Z,99034.84
2022-12-09T05:22:24.011Z,99032.16
2022-12-09T05:27:26.048Z,99029.56
2022-12-09T05:32:30.957Z,99029.56
2022-12-09T05:37:33.401Z,99031.31
2022-12-09T05:42:41.168Z,99027.84
2022-12-09T05:47:44.173Z,99026.16
2022-12-09T05:52:46.635Z,99020.81
2022-12-09T05:57:48.819Z,99016.72
2022-12-09T06:02:50.957Z,99021.81
2022-12-09T06:07:53.234Z,99019.16
2022-12-09T06:12:55.454Z,99008.78
2022-12-09T06:17:57.340Z,99008.75
2022-12-09T06:22:59.518Z,99003.63
2022-12-09T06:28:01.475Z,99016.63
2022-12-09T06:33:17.282Z,99014.97
2022-12-09T06:38:25.482Z,99025.19
2022-12-09T06:43:27.779Z,99020.78
2022-12-09T06:48:30.107Z,99024.38
2022-12-09T06:53:35.363Z,99019.22
2022-12-09T06:58:37.381Z,99023.47
2022-12-09T07:03:40.940Z,99019.13
2022-12-09T07:08:42.802Z,99018.97
2022-12-09T07:13:44.943Z,99025.19
2022-12-09T07:18:46.973Z,99028.69
2022-12-09T07:23:49.186Z,99028.75
2022-12-09T07:28:51.320Z,99023.50
2022-12-09T07:33:55.549Z,99034.69
2022-12-09T07:39:03.265Z,99029.09
2022-12-09T07:44:05.464Z,99025.78
2022-12-09T07:49:10.105Z,99025.81
2022-12-09T07:54:16.550Z,99030.97
2022-12-09T07:59:18.495Z,99029.81
2022-12-09T08:04:20.850Z,99040.19
2022-12-09T08:09:22.914Z,99031.22
2022-12-09T08:14:24.736Z,99029.16
2022-12-09T08:19:27.058Z,99037.06
2022-12-09T08:24:29.464Z,99044.00
2022-12-09T08:29:31.368Z,99035.81
2022-12-09T08:34:33.315Z,99037.88
2022-12-09T08:39:35.538Z,99039.44
2022-12-09T08:44:38.804Z,99038.13
2022-12-09T08:49:41.129Z,99034.03
2022-12-09T08:54:43.127Z,99035.28
2022-12-09T08:59:45.492Z,99035.28
2022-12-09T09:04:48.455Z,99026.16
2022-12-09T09:09:50.489Z,99021.91
2022-12-09T09:14:54.810Z,99013.84
2022-12-09T09:19:56.790Z,99007.63
2022-12-09T09:24:58.997Z,99022.00
2022-12-09T09:30:00.899Z,99016.66
2022-12-09T09:35:03.384Z,99011.72
2022-12-09T09:40:07.054Z,99012.75
2022-12-09T09:45:16.005Z,99001.03
2022-12-09T09:50:33.105Z,98994.09
2022-12-09T09:55:43.135Z,98982.09
2022-12-09T10:00:56.000Z,98979.81
2022-12-09T10:06:06.399Z,98979.53
2022-12-09T10:11:17.999Z,98967.47
2022-12-09T10:16:26.631Z,98972.75
2022-12-09T10:21:32.102Z,98963.78
2022-12-09T10:26:35.354Z,98955.06
2022-12-09T10:31:37.509Z,98959.97
2022-12-09T10:36:43.872Z,98946.22
2022-12-09T10:42:10.546Z,98937.72
2022-12-09T10:47:27.212Z,98925.31
2022-12-09T10:52:37.862Z,98923.16
2022-12-09T10:57:40.011Z,98921.50
2022-12-09T11:02:50.693Z,98928.78
2022-12-09T11:07:54.341Z,98918.81
2022-12-09T11:13:06.382Z,98926.09
2022-12-09T11:18:19.210Z,98917.88
2022-12-09T11:23:21.344Z,98914.16
2022-12-09T11:28:32.862Z,98915.81
2022-12-09T11:33:41.914Z,98916.81
2022-12-09T11:38:46.528Z,98908.84
2022-12-09T11:43:50.179Z,98917.34
2022-12-09T11:48:57.369Z,98905.16
2022-12-09T11:54:04.649Z,98910.59
2022-12-09T11:59:20.855Z,98910.59
2022-12-09T12:04:36.194Z,98908.94
2022-12-09T12:09:57.356Z,98911.22
2022-12-09T12:15:10.202Z,98903.50
2022-12-09T12:20:13.728Z,98906.88
2022-12-09T12:25:34.108Z,98908.59
2022-12-09T12:30:48.152Z,98896.75
2022-12-09T12:36:11.341Z,98898.72
2022-12-09T12:41:44.245Z,98891.06
2022-12-09T12:47:16.718Z,98888.56
2022-12-09T12:52:59.408Z,98880.13
2022-12-09T12:58:16.177Z,98878.41
2022-12-09T13:03:26.105Z,98868.25
2022-12-09T13:08:39.204Z,98870.28
2022-12-09T13:13:51.306Z,98861.38
2022-12-09T13:18:53.713Z,98857.75
2022-12-09T13:24:26.701Z,98862.09
2022-12-09T13:29:43.890Z,98857.97
2022-12-09T13:34:55.467Z,98858.13
2022-12-09T13:39:58.680Z,98858.03
2022-12-09T13:45:23.500Z,98856.22
2022-12-09T13:50:57.492Z,98855.50
2022-12-09T13:56:07.097Z,98851.97
2022-12-09T14:01:15.344Z,98844.06
2022-12-09T14:06:46.308Z,98845.78
2022-12-09T14:11:56.217Z,98851.31
2022-12-09T14:17:00.405Z,98841.72
2022-12-09T14:22:18.295Z,98841.84
2022-12-09T14:27:27.884Z,98832.41
2022-12-09T14:32:37.514Z,98836.84
2022-12-09T14:37:51.993Z,98839.28
2022-12-09T14:43:26.424Z,98839.50
2022-12-09T14:48:35.398Z,98839.50
2022-12-09T14:53:38.264Z,98826.88
2022-12-09T14:58:40.234Z,98829.38
2022-12-09T15:03:51.336Z,98835.50
2022-12-09T15:08:58.415Z,98831.28
2022-12-09T15:14:22.532Z,98825.38
2022-12-09T15:24:51.626Z,98828.78
2022-12-09T15:29:53.841Z,98829.63
2022-12-09T15:34:56.070Z,98822.84
2022-12-09T15:40:08.819Z,98817.94
2022-12-09T15:45:19.424Z,98831.72
2022-12-09T15:50:28.520Z,98838.09
2022-12-09T15:55:37.769Z,98839.09
2022-12-09T16:00:48.765Z,98835.41
2022-12-09T16:06:01.130Z,98839.75
2022-12-09T16:11:03.302Z,98845.41
2022-12-09T16:16:33.077Z,98835.84
2022-12-09T16:21:36.374Z,98831.50
2022-12-09T16:26:44.183Z,98826.44
2022-12-09T16:31:45.957Z,98845.31
2022-12-09T16:36:56.208Z,98842.59
2022-12-09T16:42:00.823Z,98843.63
2022-12-09T16:47:12.639Z,98833.78
2022-12-09T16:52:20.670Z,98833.28
2022-12-09T16:57:22.406Z,98832.63
2022-12-09T17:02:39.464Z,98823.75
2022-12-09T17:07:41.277Z,98816.75
2022-12-09T17:12:44.485Z,98815.53
2022-12-09T17:17:48.888Z,98820.72
2022-12-09T17:22:51.112Z,98822.56
2022-12-09T17:27:53.288Z,98827.84
2022-12-09T17:32:55.397Z,98832.38
2022-12-09T17:37:57.114Z,98822.00
2022-12-09T17:42:58.992Z,98828.63
2022-12-09T17:48:00.939Z,98831.78
2022-12-09T17:53:02.730Z,98837.25
2022-12-09T17:58:04.796Z,98845.03
2022-12-09T18:03:07.507Z,98845.06
2022-12-09T18:08:09.931Z,98854.53
2022-12-09T18:13:11.919Z,98863.38
2022-12-09T18:18:13.713Z,98863.38
2022-12-09T18:23:16.553Z,98866.06
2022-12-09T18:28:18.248Z,98872.94
2022-12-09T18:33:19.908Z,98862.56
2022-12-09T18:38:21.673Z,98863.59
2022-12-09T18:43:23.564Z,98869.56
2022-12-09T18:48:25.292Z,98872.25
2022-12-09T18:53:27.490Z,98869.56
2022-12-09T18:58:57.515Z,98875.59
2022-12-09T19:03:54.497Z,98873.03
2022-12-09T19:08:58.810Z,98875.41
2022-12-09T19:14:01.314Z,98879.88
2022-12-09T19:19:09.200Z,98877.31
2022-12-09T19:24:18.150Z,98873.66
2022-12-09T19:29:20.748Z,98872.97
2022-12-09T19:34:28.312Z,98876.66
2022-12-09T19:39:31.606Z,98885.09
2022-12-09T19:49:55.466Z,98885.44
2022-12-09T19:54:57.362Z,98881.06
2022-12-09T19:59:59.081Z,98882.59
2022-12-09T20:05:00.821Z,98890.63
2022-12-09T20:10:02.723Z,98890.59
2022-12-09T20:15:07.953Z,98888.94
2022-12-09T20:20:11.030Z,98886.34
2022-12-09T20:25:12.762Z,98887.31
2022-12-09T20:30:14.576Z,98893.09
2022-12-09T20:35:16.655Z,98894.84
2022-12-09T20:40:18.458Z,98900.22
2022-12-09T20:45:20.194Z,98900.97
2022-12-09T20:50:21.920Z,98906.91
2022-12-09T20:55:23.641Z,98904.25
2022-12-09T21:00:25.472Z,98908.53
2022-12-09T21:05:27.270Z,98904.13
2022-12-09T21:10:29.014Z,98903.75
2022-12-09T21:15:30.793Z,98895.81
2022-12-09T21:20:32.694Z,98893.50
2022-12-09T21:25:34.417Z,98888.16
2022-12-09T21:30:38.189Z,98892.38
2022-12-09T21:35:45.302Z,98904.63
2022-12-09T21:40:47.064Z,98902.91
2022-12-09T21:45:48.857Z,98914.03
2022-12-09T21:50:55.246Z,98915.88
2022-12-09T21:56:15.861Z,98915.88
2022-12-09T22:01:23.290Z,98915.09
2022-12-09T22:06:25.788Z,98916.59
2022-12-09T22:11:29.957Z,98928.91
2022-12-09T22:16:34.561Z,98921.94
2022-12-09T22:21:37.088Z,98933.31
2022-12-09T22:26:40.017Z,98929.16
2022-12-09T22:31:42.591Z,98928.09
2022-12-09T22:36:45.022Z,98935.94
2022-12-09T22:41:46.778Z,98941.28
2022-12-09T22:46:49.176Z,98932.53
2022-12-09T22:51:50.903Z,98931.72
2022-12-09T22:56:52.744Z,98938.69
2022-12-09T23:01:54.726Z,98929.84
2022-12-09T23:06:56.632Z,98936.94
2022-12-09T23:11:58.344Z,98942.06
2022-12-09T23:17:00.022Z,98938.63
2022-12-09T23:22:01.907Z,98941.91
2022-12-09T23:27:04.717Z,98936.88
2022-12-09T23:32:06.416Z,98941.19
2022-12-09T23:37:08.021Z,98936.88
2022-12-09T23:42:09.686Z,98943.84
2022-12-09T23:47:11.413Z,98936.03
2022-12-09T23:52:15.878Z,98942.88
2022-12-09T23:57:17.586Z,98942.78
